createdAt,value
2022-10-31T00:01:13.596Z,5.65
2022-10-31T00:06:19.159Z,5.85
2022-10-31T00:11:22.068Z,5.22
2022-10-31T00:16:26.297Z,5.70
2022-10-31T00:21:31.595Z,5.07
2022-10-31T00:26:34.410Z,4.97
2022-10-31T00:31:37.060Z,5.95
2022-10-31T00:36:41.103Z,5.10
2022-10-31T00:41:43.814Z,5.00
2022-10-31T00:46:46.491Z,5.65
2022-10-31T00:51:50.419Z,5.90
2022-10-31T00:56:53.040Z,6.03
2022-10-31T01:01:55.853Z,5.65
2022-10-31T01:06:59.912Z,5.88
2022-10-31T01:12:02.581Z,5.88
2022-10-31T01:17:05.184Z,5.85
2022-10-31T01:22:09.183Z,5.38
2022-10-31T01:27:11.766Z,5.47
2022-10-31T01:32:14.311Z,5.20
2022-10-31T01:37:18.307Z,5.97
2022-10-31T01:42:22.987Z,6.13
2022-10-31T01:47:40.887Z,5.85
2022-10-31T01:52:48.119Z,5.85
2022-10-31T01:57:55.774Z,6.07
2022-10-31T02:02:58.757Z,5.95
2022-10-31T02:08:07.483Z,6.03
2022-10-31T02:13:10.795Z,5.60
2022-10-31T02:18:13.505Z,5.68
2022-10-31T02:23:45.194Z,6.93
2022-10-31T02:29:12.470Z,5.00
2022-10-31T02:34:21.468Z,5.28
2022-10-31T02:39:28.396Z,5.43
2022-10-31T02:44:37.645Z,5.10
2022-10-31T02:49:47.734Z,5.22
2022-10-31T02:54:50.722Z,5.10
2022-10-31T02:59:57.150Z,5.47
2022-10-31T03:05:18.671Z,5.55
2022-10-31T03:10:33.514Z,6.03
2022-10-31T03:15:39.398Z,5.95
2022-10-31T03:20:47.807Z,5.63
2022-10-31T03:25:51.216Z,5.65
2022-10-31T03:30:55.941Z,5.47
2022-10-31T03:36:02.451Z,5.75
2022-10-31T03:41:07.899Z,6.60
2022-10-31T03:46:10.936Z,6.70
2022-10-31T03:51:21.682Z,5.72
2022-10-31T03:56:29.505Z,5.30
2022-10-31T04:01:36.724Z,5.65
2022-10-31T04:06:43.961Z,6.70
2022-10-31T04:11:50.954Z,6.22
2022-10-31T04:16:53.737Z,5.75
2022-10-31T04:21:57.738Z,6.68
2022-10-31T04:27:00.312Z,5.60
2022-10-31T04:32:02.851Z,6.05
2022-10-31T04:37:06.833Z,6.15
2022-10-31T04:42:09.456Z,6.60
2022-10-31T04:47:12.045Z,5.90
2022-10-31T04:52:16.077Z,5.97
2022-10-31T04:57:18.682Z,4.45
2022-10-31T05:02:21.496Z,6.22
2022-10-31T05:07:25.510Z,6.13
2022-10-31T05:12:28.186Z,7.22
2022-10-31T05:17:30.830Z,5.32
2022-10-31T05:22:34.837Z,6.40
2022-10-31T05:27:40.853Z,5.68
2022-10-31T05:32:44.986Z,5.25
2022-10-31T05:37:49.073Z,6.03
2022-10-31T05:42:53.985Z,5.90
2022-10-31T05:47:58.299Z,5.57
2022-10-31T05:58:05.892Z,5.57
2022-10-31T06:03:10.933Z,5.28
2022-10-31T06:08:15.156Z,5.82
2022-10-31T06:13:18.076Z,5.97
2022-10-31T06:18:20.681Z,5.70
2022-10-31T06:23:24.670Z,5.60
2022-10-31T06:28:27.277Z,6.10
2022-10-31T06:33:30.057Z,5.55
2022-10-31T06:38:34.204Z,5.97
2022-10-31T06:43:36.874Z,5.70
2022-10-31T06:48:39.642Z,5.50
2022-10-31T06:53:43.688Z,5.65
2022-10-31T06:58:46.560Z,4.47
2022-10-31T07:03:49.261Z,5.75
2022-10-31T07:08:53.436Z,5.55
2022-10-31T07:13:56.140Z,6.40
2022-10-31T07:18:59.035Z,7.40
2022-10-31T07:24:03.311Z,7.65
2022-10-31T07:29:08.461Z,5.55
2022-10-31T07:34:18.094Z,7.30
2022-10-31T07:39:26.372Z,8.15
2022-10-31T07:44:29.058Z,8.15
2022-10-31T07:49:31.700Z,7.25
2022-10-31T07:54:35.833Z,7.68
2022-10-31T07:59:38.537Z,7.20
2022-10-31T08:04:41.217Z,7.65
2022-10-31T08:09:45.399Z,7.55
2022-10-31T08:14:48.149Z,7.53
2022-10-31T08:19:50.817Z,7.70
2022-10-31T08:24:54.962Z,7.65
2022-10-31T08:29:57.631Z,8.13
2022-10-31T08:35:00.237Z,7.60
2022-10-31T08:40:04.835Z,8.43
2022-10-31T08:45:08.037Z,14.10
2022-10-31T08:50:11.061Z,8.50
2022-10-31T08:55:15.181Z,8.77
2022-10-31T09:00:18.172Z,7.53
2022-10-31T09:05:20.852Z,5.43
2022-10-31T09:10:25.574Z,7.03
2022-10-31T09:15:29.563Z,7.18
2022-10-31T09:20:33.463Z,6.65
2022-10-31T09:25:38.082Z,6.53
2022-10-31T09:30:41.160Z,6.43
2022-10-31T09:35:44.042Z,7.50
2022-10-31T09:40:50.063Z,9.98
2022-10-31T09:46:02.883Z,12.90
2022-10-31T09:51:09.563Z,15.82
2022-10-31T09:56:16.758Z,14.93
2022-10-31T10:01:32.561Z,16.00
2022-10-31T10:06:39.047Z,16.27
2022-10-31T10:11:55.069Z,15.50
2022-10-31T10:17:12.080Z,16.05
2022-10-31T10:22:20.461Z,13.73
2022-10-31T10:27:30.198Z,14.32
2022-10-31T10:32:43.906Z,17.20
2022-10-31T10:37:51.262Z,19.50
2022-10-31T10:43:23.140Z,19.55
2022-10-31T10:48:44.076Z,19.63
2022-10-31T10:54:10.314Z,21.35
2022-10-31T10:59:18.629Z,22.20
2022-10-31T11:04:30.205Z,21.58
2022-10-31T11:09:35.092Z,22.50
2022-10-31T11:14:47.265Z,23.92
2022-10-31T11:19:50.197Z,22.88
2022-10-31T11:24:53.117Z,25.92
2022-10-31T11:30:06.631Z,22.92
2022-10-31T11:35:18.992Z,24.33
2022-10-31T11:40:24.086Z,23.02
2022-10-31T11:45:34.667Z,25.17
2022-10-31T11:50:41.287Z,23.63
2022-10-31T11:55:44.059Z,23.52
2022-10-31T12:00:51.764Z,25.58
2022-10-31T12:06:01.144Z,25.70
2022-10-31T12:11:13.324Z,24.80
2022-10-31T12:16:22.328Z,25.20
2022-10-31T12:21:51.587Z,25.15
2022-10-31T12:27:03.516Z,23.73
2022-10-31T12:32:22.637Z,23.20
2022-10-31T12:37:42.168Z,24.27
2022-10-31T12:43:05.805Z,24.75
2022-10-31T12:48:30.343Z,22.85
2022-10-31T12:53:45.665Z,23.42
2022-10-31T12:58:53.730Z,25.00
2022-10-31T13:04:03.340Z,23.42
2022-10-31T13:09:11.075Z,23.38
2022-10-31T13:14:23.202Z,23.45
2022-10-31T13:19:32.319Z,23.67
2022-10-31T13:24:38.610Z,23.63
2022-10-31T13:29:48.332Z,24.85
2022-10-31T13:34:57.757Z,23.58
2022-10-31T13:40:14.036Z,23.15
2022-10-31T13:45:19.103Z,23.13
2022-10-31T13:50:25.669Z,23.58
2022-10-31T13:55:38.620Z,24.08
2022-10-31T14:00:41.365Z,23.75
2022-10-31T14:05:55.401Z,25.70
2022-10-31T14:10:58.541Z,25.10
2022-10-31T14:16:05.869Z,24.10
2022-10-31T14:21:29.214Z,24.85
2022-10-31T14:26:35.373Z,25.88
2022-10-31T14:31:40.163Z,24.27
2022-10-31T14:36:55.808Z,23.60
2022-10-31T14:42:12.877Z,24.77
2022-10-31T14:47:24.080Z,23.75
2022-10-31T14:52:29.862Z,25.70
2022-10-31T14:57:39.510Z,26.55
2022-10-31T15:02:51.222Z,24.50
2022-10-31T15:07:56.955Z,24.10
2022-10-31T15:13:11.478Z,23.30
2022-10-31T15:18:18.268Z,22.80
2022-10-31T15:23:27.871Z,24.63
2022-10-31T15:28:32.371Z,23.13
2022-10-31T15:33:48.157Z,23.30
2022-10-31T15:38:52.661Z,22.35
2022-10-31T15:43:56.493Z,23.65
2022-10-31T15:48:59.861Z,24.02
2022-10-31T15:54:03.933Z,24.73
2022-10-31T15:59:06.737Z,24.95
2022-10-31T16:04:23.839Z,25.73
2022-10-31T16:09:28.213Z,25.65
2022-10-31T16:14:42.292Z,26.60
2022-10-31T16:19:53.083Z,25.08
2022-10-31T16:25:05.173Z,25.23
2022-10-31T16:30:30.489Z,26.27
2022-10-31T16:35:35.837Z,24.65
2022-10-31T16:40:41.171Z,26.23
2022-10-31T16:45:46.575Z,26.63
2022-10-31T16:50:50.010Z,27.27
2022-10-31T16:55:58.679Z,31.20
2022-10-31T17:01:03.041Z,31.08
2022-10-31T17:11:15.290Z,35.45
2022-10-31T17:16:17.982Z,36.58
2022-10-31T17:21:23.880Z,33.90
2022-10-31T17:26:28.265Z,30.45
2022-10-31T17:36:35.427Z,33.03
2022-10-31T17:41:39.503Z,34.37
2022-10-31T17:46:42.110Z,35.72
2022-10-31T17:51:44.717Z,33.88
2022-10-31T17:56:48.687Z,33.35
2022-10-31T18:01:51.463Z,32.22
2022-10-31T18:06:54.259Z,34.55
2022-10-31T18:11:58.389Z,32.97
2022-10-31T18:17:01.038Z,33.50
2022-10-31T18:22:03.752Z,31.67
2022-10-31T18:27:08.040Z,29.42
2022-10-31T18:32:10.692Z,21.88
2022-10-31T18:37:13.406Z,29.35
2022-10-31T18:42:17.517Z,29.02
2022-10-31T18:47:23.198Z,30.23
2022-10-31T18:52:25.804Z,29.67
2022-10-31T18:57:29.997Z,29.80
2022-10-31T19:02:33.056Z,28.95
2022-10-31T19:07:36.638Z,28.63
2022-10-31T19:12:40.573Z,29.90
2022-10-31T19:17:43.265Z,29.35
2022-10-31T19:22:46.003Z,29.50
2022-10-31T19:27:50.053Z,28.65
2022-10-31T19:32:55.765Z,29.98
2022-10-31T19:37:58.830Z,28.00
2022-10-31T19:43:03.032Z,30.98
2022-10-31T19:48:06.134Z,29.05
2022-10-31T19:53:09.503Z,29.50
2022-10-31T19:58:14.142Z,29.38
2022-10-31T20:03:19.913Z,30.02
2022-10-31T20:08:25.033Z,30.90
2022-10-31T20:13:29.993Z,30.00
2022-10-31T20:18:32.902Z,30.70
2022-10-31T20:23:36.636Z,31.77
2022-10-31T20:28:43.226Z,30.23
2022-10-31T20:33:46.306Z,30.90
2022-10-31T20:38:48.920Z,32.47
2022-10-31T20:43:53.497Z,36.25
2022-10-31T20:48:56.131Z,43.55
2022-10-31T20:54:00.582Z,44.88
2022-10-31T21:04:09.769Z,43.72
2022-10-31T21:09:12.489Z,46.97
2022-10-31T21:14:16.500Z,44.80
2022-10-31T21:19:19.139Z,34.83
2022-10-31T21:24:22.324Z,44.33
2022-10-31T21:29:26.281Z,44.17
2022-10-31T21:34:28.884Z,43.60
2022-10-31T21:39:31.431Z,46.20
2022-10-31T21:44:35.464Z,45.00
2022-10-31T21:49:38.076Z,44.30
2022-10-31T21:54:40.675Z,48.30
2022-10-31T21:59:48.360Z,50.75
2022-10-31T22:04:51.418Z,48.42
2022-10-31T22:09:54.011Z,45.22
2022-10-31T22:14:57.972Z,44.97
2022-10-31T22:20:00.581Z,45.65
2022-10-31T22:25:03.147Z,44.38
2022-10-31T22:30:08.530Z,44.35
2022-10-31T22:35:11.165Z,44.17
2022-10-31T22:40:13.831Z,46.55
2022-10-31T22:45:18.062Z,43.92
2022-10-31T22:50:20.733Z,42.42
2022-10-31T22:55:23.399Z,41.17
2022-10-31T23:00:27.387Z,43.70
2022-10-31T23:05:29.998Z,41.83
2022-10-31T23:10:34.196Z,40.25
2022-10-31T23:15:39.185Z,43.13
2022-10-31T23:20:41.772Z,43.05
2022-10-31T23:26:02.739Z,40.67
2022-10-31T23:31:06.828Z,39.03
2022-10-31T23:36:09.879Z,38.08
2022-10-31T23:41:12.497Z,38.78
2022-10-31T23:46:16.509Z,37.65
2022-10-31T23:51:19.111Z,38.10
2022-10-31T23:56:21.802Z,39.95
